Etusivu
METAR-TAF:

METAR-TAF

Lentoasemat :

Timimoun, Algeria

Leveyspiiri: 29-15N, Pituuspiiri: 000-17E, korkeus merenpinnasta: 312 m

Tämänhetkinen sää

Tämä raportti tehtiin 46 minuuttia sitten, kello 07.00 UTC
Tuuli 5 kn pohjoisesta
Lämpötila 34°C
Kosteus 12%
Ilmanpaine 1011 hPa
Näkyvyys 10 km tai enemmän
ei pilviä alle 1500 m:ssä eikä cumulonimbus-pilviä

METAR: DAUT 140700Z 35005KT CAVOK 34/01 Q1011

Aika: 08:46 (07:46 UTC)

Sääennuste

Tämä raportti tehtiin 2 tuntia ja 46 minuuttia sitten, kello 05.00 UTC
Ennuste voimassa 14. päivästä klo 06 UTC - 14. päivään klo 15 UTC
Tuuli 2 kn eri suunnista
Näkyvyys 10 km tai enemmän
ei pilviä alle 1500 m:ssä eikä cumulonimbus-pilviä
Tulossa
14. päivästä klo 08 UTC - 14. päivään klo 10 UTC
Tuuli 10 kn etelästä/kaakosta

TAF: DAUT 140500Z 1406/1415 VRB02KT CAVOK BECMG 1408/1410 16010KT

Säähavainnot ja -ennusteet yli 4000 lentoasemalta (METAR- ja TAF-raportit).

Käytössä olevat sääasemat on merkitty karttaan keltaisilla ja punaisilla pisteillä.

Aseta hiiri pisteen päälle nähdäksesi sääaseman nimen.

Klikkaa sitten nähdäksesi säähavainnot ja -ennusteet.

Kartan vaihtaminen: klikkaa mustalla rastilla varustettuja vihreitä pisteitä, niin voit zoomata sisään; viivalla varustettua vihreää pistettä, niin voit zoomata ulos tai vihreitä nuolia, niin pääset viereisille kartoille.


METAR-TAF: